sensor_id;sensor_type;location;lat;lon;timestamp;temperature;humidity
68139;DHT22;54940;50.842;4.410;2022-08-24T00:00:12;23.60;97.50
68139;DHT22;54940;50.842;4.410;2022-08-24T00:02:38;23.60;97.40
68139;DHT22;54940;50.842;4.410;2022-08-24T00:05:04;23.60;97.50
68139;DHT22;54940;50.842;4.410;2022-08-24T00:07:30;23.50;97.60
68139;DHT22;54940;50.842;4.410;2022-08-24T00:09:56;23.50;97.70
68139;DHT22;54940;50.842;4.410;2022-08-24T00:12:22;23.50;97.60
68139;DHT22;54940;50.842;4.410;2022-08-24T00:14:48;23.50;97.80
68139;DHT22;54940;50.842;4.410;2022-08-24T00:17:15;23.50;98.00
68139;DHT22;54940;50.842;4.410;2022-08-24T00:19:41;23.50;98.10
68139;DHT22;54940;50.842;4.410;2022-08-24T00:22:06;23.50;98.20
68139;DHT22;54940;50.842;4.410;2022-08-24T00:24:32;23.50;98.10
68139;DHT22;54940;50.842;4.410;2022-08-24T00:26:58;23.50;98.00
68139;DHT22;54940;50.842;4.410;2022-08-24T00:29:24;23.50;98.10
68139;DHT22;54940;50.842;4.410;2022-08-24T00:31:50;23.40;98.30
68139;DHT22;54940;50.842;4.410;2022-08-24T00:34:16;23.40;98.20
68139;DHT22;54940;50.842;4.410;2022-08-24T00:36:43;23.40;98.60
68139;DHT22;54940;50.842;4.410;2022-08-24T00:39:10;23.30;98.70
68139;DHT22;54940;50.842;4.410;2022-08-24T00:41:40;23.30;98.70
68139;DHT22;54940;50.842;4.410;2022-08-24T00:44:06;23.30;98.60
68139;DHT22;54940;50.842;4.410;2022-08-24T00:52:29;23.30;98.90
68139;DHT22;54940;50.842;4.410;2022-08-24T00:55:02;23.20;99.30
68139;DHT22;54940;50.842;4.410;2022-08-24T00:57:34;23.20;99.20
68139;DHT22;54940;50.842;4.410;2022-08-24T01:00:07;23.20;99.40
68139;DHT22;54940;50.842;4.410;2022-08-24T01:02:35;23.20;99.10
68139;DHT22;54940;50.842;4.410;2022-08-24T01:05:05;23.10;99.20
68139;DHT22;54940;50.842;4.410;2022-08-24T01:07:33;23.10;99.20
68139;DHT22;54940;50.842;4.410;2022-08-24T01:10:04;23.10;99.20
68139;DHT22;54940;50.842;4.410;2022-08-24T01:12:32;23.10;99.30
68139;DHT22;54940;50.842;4.410;2022-08-24T01:15:00;23.00;99.60
68139;DHT22;54940;50.842;4.410;2022-08-24T01:17:26;23.00;99.50
68139;DHT22;54940;50.842;4.410;2022-08-24T01:20:11;23.10;99.50
68139;DHT22;54940;50.842;4.410;2022-08-24T01:25:24;22.90;99.80
68139;DHT22;54940;50.842;4.410;2022-08-24T01:27:53;22.90;99.80
68139;DHT22;54940;50.842;4.410;2022-08-24T01:30:20;22.90;99.70
68139;DHT22;54940;50.842;4.410;2022-08-24T01:33:00;22.90;99.70
68139;DHT22;54940;50.842;4.410;2022-08-24T01:35:28;22.90;99.80
68139;DHT22;54940;50.842;4.410;2022-08-24T01:37:54;22.80;99.70
68139;DHT22;54940;50.842;4.410;2022-08-24T01:40:27;22.90;99.70
68139;DHT22;54940;50.842;4.410;2022-08-24T01:42:55;22.80;99.60
68139;DHT22;54940;50.842;4.410;2022-08-24T01:45:21;22.80;99.70
68139;DHT22;54940;50.842;4.410;2022-08-24T01:47:47;22.80;99.70
68139;DHT22;54940;50.842;4.410;2022-08-24T01:50:13;22.80;99.80
68139;DHT22;54940;50.842;4.410;2022-08-24T01:52:40;22.70;99.80
68139;DHT22;54940;50.842;4.410;2022-08-24T01:55:09;22.70;99.90
68139;DHT22;54940;50.842;4.410;2022-08-24T01:57:35;22.70;99.90
68139;DHT22;54940;50.842;4.410;2022-08-24T02:00:03;22.60;99.90
68139;DHT22;54940;50.842;4.410;2022-08-24T02:02:30;22.70;99.90
68139;DHT22;54940;50.842;4.410;2022-08-24T02:04:56;22.60;99.90
68139;DHT22;54940;50.842;4.410;2022-08-24T02:07:22;22.70;99.90
68139;DHT22;54940;50.842;4.410;2022-08-24T02:09:48;22.60;99.90
68139;DHT22;54940;50.842;4.410;2022-08-24T02:12:14;22.60;99.90
68139;DHT22;54940;50.842;4.410;2022-08-24T02:14:40;22.50;99.90
68139;DHT22;54940;50.842;4.410;2022-08-24T02:17:07;22.50;99.90
68139;DHT22;54940;50.842;4.410;2022-08-24T02:19:33;22.50;99.90
68139;DHT22;54940;50.842;4.410;2022-08-24T02:21:59;22.50;99.90
68139;DHT22;54940;50.842;4.410;2022-08-24T02:24:26;22.50;99.90
68139;DHT22;54940;50.842;4.410;2022-08-24T02:26:53;22.50;99.90
68139;DHT22;54940;50.842;4.410;2022-08-24T02:29:19;22.50;99.90
68139;DHT22;54940;50.842;4.410;2022-08-24T02:31:44;22.50;99.90
68139;DHT22;54940;50.842;4.410;2022-08-24T02:34:10;22.50;99.90
68139;DHT22;54940;50.842;4.410;2022-08-24T02:36:36;22.40;99.90
68139;DHT22;54940;50.842;4.410;2022-08-24T02:39:03;22.40;99.90
68139;DHT22;54940;50.842;4.410;2022-08-24T02:41:29;22.40;99.90
68139;DHT22;54940;50.842;4.410;2022-08-24T02:43:55;22.30;99.90
68139;DHT22;54940;50.842;4.410;2022-08-24T02:46:25;22.40;99.90
68139;DHT22;54940;50.842;4.410;2022-08-24T02:48:52;22.40;99.90
68139;DHT22;54940;50.842;4.410;2022-08-24T02:51:23;22.40;99.90
68139;DHT22;54940;50.842;4.410;2022-08-24T02:53:49;22.30;99.90
68139;DHT22;54940;50.842;4.410;2022-08-24T02:56:15;22.30;99.90
68139;DHT22;54940;50.842;4.410;2022-08-24T02:58:43;22.30;99.90
68139;DHT22;54940;50.842;4.410;2022-08-24T03:01:10;22.20;99.90
68139;DHT22;54940;50.842;4.410;2022-08-24T03:03:36;22.30;99.90
68139;DHT22;54940;50.842;4.410;2022-08-24T03:06:03;22.20;99.90
68139;DHT22;54940;50.842;4.410;2022-08-24T03:08:29;22.20;99.90
68139;DHT22;54940;50.842;4.410;2022-08-24T03:10:55;22.20;99.90
68139;DHT22;54940;50.842;4.410;2022-08-24T03:13:20;22.20;99.90
68139;DHT22;54940;50.842;4.410;2022-08-24T03:15:46;22.20;99.90
68139;DHT22;54940;50.842;4.410;2022-08-24T03:18:12;22.20;99.90
68139;DHT22;54940;50.842;4.410;2022-08-24T03:20:38;22.10;99.90
68139;DHT22;54940;50.842;4.410;2022-08-24T03:23:04;22.20;99.90
68139;DHT22;54940;50.842;4.410;2022-08-24T03:25:30;22.10;99.90
68139;DHT22;54940;50.842;4.410;2022-08-24T03:27:56;22.10;99.90
68139;DHT22;54940;50.842;4.410;2022-08-24T03:30:22;22.10;99.90
68139;DHT22;54940;50.842;4.410;2022-08-24T03:32:49;22.10;99.90
68139;DHT22;54940;50.842;4.410;2022-08-24T03:35:15;22.10;99.90
68139;DHT22;54940;50.842;4.410;2022-08-24T03:37:41;22.00;99.90
68139;DHT22;54940;50.842;4.410;2022-08-24T03:40:10;22.00;99.90
68139;DHT22;54940;50.842;4.410;2022-08-24T03:42:36;22.00;99.90
68139;DHT22;54940;50.842;4.410;2022-08-24T03:45:03;22.00;99.90
68139;DHT22;54940;50.842;4.410;2022-08-24T03:47:29;22.00;99.90
68139;DHT22;54940;50.842;4.410;2022-08-24T03:49:54;22.00;99.90
68139;DHT22;54940;50.842;4.410;2022-08-24T03:52:21;22.00;99.90
68139;DHT22;54940;50.842;4.410;2022-08-24T03:54:47;22.00;99.90
68139;DHT22;54940;50.842;4.410;2022-08-24T03:57:12;22.00;99.90
68139;DHT22;54940;50.842;4.410;2022-08-24T03:59:38;22.00;99.90
68139;DHT22;54940;50.842;4.410;2022-08-24T04:02:04;22.00;99.90
68139;DHT22;54940;50.842;4.410;2022-08-24T04:04:30;21.90;99.90
68139;DHT22;54940;50.842;4.410;2022-08-24T04:06:56;21.90;99.90
68139;DHT22;54940;50.842;4.410;2022-08-24T04:09:22;21.90;99.90
68139;DHT22;54940;50.842;4.410;2022-08-24T04:11:48;21.80;99.90
68139;DHT22;54940;50.842;4.410;2022-08-24T04:14:15;21.90;99.90
68139;DHT22;54940;50.842;4.410;2022-08-24T04:16:41;21.80;99.90
68139;DHT22;54940;50.842;4.410;2022-08-24T04:19:09;21.80;99.90
68139;DHT22;54940;50.842;4.410;2022-08-24T04:21:35;21.80;99.90
68139;DHT22;54940;50.842;4.410;2022-08-24T04:24:03;21.80;99.90
68139;DHT22;54940;50.842;4.410;2022-08-24T04:26:30;21.70;99.90
68139;DHT22;54940;50.842;4.410;2022-08-24T04:28:56;21.70;99.90
68139;DHT22;54940;50.842;4.410;2022-08-24T04:31:22;21.70;99.90
68139;DHT22;54940;50.842;4.410;2022-08-24T04:33:50;21.70;99.90
68139;DHT22;54940;50.842;4.410;2022-08-24T04:36:18;21.70;99.90
68139;DHT22;54940;50.842;4.410;2022-08-24T04:38:46;21.70;99.90
68139;DHT22;54940;50.842;4.410;2022-08-24T04:41:13;21.80;99.90
68139;DHT22;54940;50.842;4.410;2022-08-24T04:43:40;21.80;99.90
68139;DHT22;54940;50.842;4.410;2022-08-24T04:46:11;21.70;99.90
68139;DHT22;54940;50.842;4.410;2022-08-24T04:48:40;21.70;99.90
68139;DHT22;54940;50.842;4.410;2022-08-24T04:51:07;21.70;99.90
68139;DHT22;54940;50.842;4.410;2022-08-24T04:53:34;21.60;99.90
68139;DHT22;54940;50.842;4.410;2022-08-24T04:56:00;21.60;99.90
68139;DHT22;54940;50.842;4.410;2022-08-24T04:58:27;21.60;99.90
68139;DHT22;54940;50.842;4.410;2022-08-24T05:00:53;21.60;99.90
68139;DHT22;54940;50.842;4.410;2022-08-24T05:03:19;21.60;99.90
68139;DHT22;54940;50.842;4.410;2022-08-24T05:05:48;21.60;99.90
68139;DHT22;54940;50.842;4.410;2022-08-24T05:08:18;21.60;99.90
68139;DHT22;54940;50.842;4.410;2022-08-24T05:10:46;21.60;99.90
68139;DHT22;54940;50.842;4.410;2022-08-24T05:13:13;21.60;99.90
68139;DHT22;54940;50.842;4.410;2022-08-24T05:15:45;21.60;99.90
68139;DHT22;54940;50.842;4.410;2022-08-24T05:18:12;21.60;99.90
68139;DHT22;54940;50.842;4.410;2022-08-24T05:20:40;21.60;99.90
68139;DHT22;54940;50.842;4.410;2022-08-24T05:23:06;21.60;99.90
68139;DHT22;54940;50.842;4.410;2022-08-24T05:25:32;21.60;99.90
68139;DHT22;54940;50.842;4.410;2022-08-24T05:27:57;21.70;99.90
68139;DHT22;54940;50.842;4.410;2022-08-24T05:30:23;21.90;99.90
68139;DHT22;54940;50.842;4.410;2022-08-24T05:32:49;22.40;99.90
68139;DHT22;54940;50.842;4.410;2022-08-24T05:35:15;22.90;99.90
68139;DHT22;54940;50.842;4.410;2022-08-24T05:37:41;23.30;99.90
68139;DHT22;54940;50.842;4.410;2022-08-24T05:40:10;23.40;99.90
68139;DHT22;54940;50.842;4.410;2022-08-24T05:42:37;23.40;99.90
68139;DHT22;54940;50.842;4.410;2022-08-24T05:45:04;23.60;99.90
68139;DHT22;54940;50.842;4.410;2022-08-24T05:47:31;24.10;99.90
68139;DHT22;54940;50.842;4.410;2022-08-24T05:49:57;24.60;99.90
68139;DHT22;54940;50.842;4.410;2022-08-24T05:52:22;25.10;99.20
68139;DHT22;54940;50.842;4.410;2022-08-24T05:54:54;25.50;98.40
68139;DHT22;54940;50.842;4.410;2022-08-24T05:57:22;25.80;98.00
68139;DHT22;54940;50.842;4.410;2022-08-24T05:59:49;26.00;97.50
68139;DHT22;54940;50.842;4.410;2022-08-24T06:02:16;26.30;97.00
68139;DHT22;54940;50.842;4.410;2022-08-24T06:04:43;26.70;96.80
68139;DHT22;54940;50.842;4.410;2022-08-24T06:07:10;27.00;96.00
68139;DHT22;54940;50.842;4.410;2022-08-24T06:09:38;27.10;95.60
68139;DHT22;54940;50.842;4.410;2022-08-24T06:12:04;27.20;96.10
68139;DHT22;54940;50.842;4.410;2022-08-24T06:14:30;27.30;95.00
68139;DHT22;54940;50.842;4.410;2022-08-24T06:16:58;27.60;95.20
68139;DHT22;54940;50.842;4.410;2022-08-24T06:19:23;27.70;94.50
68139;DHT22;54940;50.842;4.410;2022-08-24T06:21:52;27.80;94.50
68139;DHT22;54940;50.842;4.410;2022-08-24T06:24:19;27.90;94.30
68139;DHT22;54940;50.842;4.410;2022-08-24T06:27:05;28.00;94.30
68139;DHT22;54940;50.842;4.410;2022-08-24T06:29:54;27.60;94.30
68139;DHT22;54940;50.842;4.410;2022-08-24T06:32:20;27.30;95.10
68139;DHT22;54940;50.842;4.410;2022-08-24T06:34:46;27.00;95.10
68139;DHT22;54940;50.842;4.410;2022-08-24T06:37:12;26.80;95.70
68139;DHT22;54940;50.842;4.410;2022-08-24T06:39:37;26.50;96.10
68139;DHT22;54940;50.842;4.410;2022-08-24T06:42:03;26.30;96.20
68139;DHT22;54940;50.842;4.410;2022-08-24T06:44:30;26.20;96.60
68139;DHT22;54940;50.842;4.410;2022-08-24T06:46:56;26.10;96.80
68139;DHT22;54940;50.842;4.410;2022-08-24T06:49:22;26.00;97.30
68139;DHT22;54940;50.842;4.410;2022-08-24T06:51:49;26.00;97.20
68139;DHT22;54940;50.842;4.410;2022-08-24T06:54:15;26.00;97.60
68139;DHT22;54940;50.842;4.410;2022-08-24T06:56:41;25.90;97.30
68139;DHT22;54940;50.842;4.410;2022-08-24T06:59:07;26.00;96.70
68139;DHT22;54940;50.842;4.410;2022-08-24T07:01:33;25.90;97.00
68139;DHT22;54940;50.842;4.410;2022-08-24T07:03:59;25.70;97.40
68139;DHT22;54940;50.842;4.410;2022-08-24T07:06:25;25.70;98.10
68139;DHT22;54940;50.842;4.410;2022-08-24T07:08:51;25.50;98.40
68139;DHT22;54940;50.842;4.410;2022-08-24T07:11:18;25.50;98.40
68139;DHT22;54940;50.842;4.410;2022-08-24T07:13:45;25.50;97.90
68139;DHT22;54940;50.842;4.410;2022-08-24T07:16:12;25.60;97.80
68139;DHT22;54940;50.842;4.410;2022-08-24T07:18:39;25.70;97.50
68139;DHT22;54940;50.842;4.410;2022-08-24T07:21:05;25.80;97.20
68139;DHT22;54940;50.842;4.410;2022-08-24T07:23:31;25.80;97.70
68139;DHT22;54940;50.842;4.410;2022-08-24T07:26:10;25.90;98.30
68139;DHT22;54940;50.842;4.410;2022-08-24T07:28:37;26.20;98.50
68139;DHT22;54940;50.842;4.410;2022-08-24T07:31:04;26.20;98.00
68139;DHT22;54940;50.842;4.410;2022-08-24T07:33:30;26.50;97.80
68139;DHT22;54940;50.842;4.410;2022-08-24T07:35:56;27.00;97.10
68139;DHT22;54940;50.842;4.410;2022-08-24T07:38:21;27.60;96.50
68139;DHT22;54940;50.842;4.410;2022-08-24T07:40:47;27.80;95.10
68139;DHT22;54940;50.842;4.410;2022-08-24T07:43:13;28.00;95.10
68139;DHT22;54940;50.842;4.410;2022-08-24T07:45:40;28.20;94.00
68139;DHT22;54940;50.842;4.410;2022-08-24T07:48:07;28.40;93.50
68139;DHT22;54940;50.842;4.410;2022-08-24T07:50:32;27.90;94.20
68139;DHT22;54940;50.842;4.410;2022-08-24T07:52:58;27.60;93.60
68139;DHT22;54940;50.842;4.410;2022-08-24T07:55:24;27.30;95.20
68139;DHT22;54940;50.842;4.410;2022-08-24T07:57:50;27.00;95.10
68139;DHT22;54940;50.842;4.410;2022-08-24T08:00:16;26.80;94.90
68139;DHT22;54940;50.842;4.410;2022-08-24T08:02:44;26.60;95.10
68139;DHT22;54940;50.842;4.410;2022-08-24T08:05:16;26.40;95.60
68139;DHT22;54940;50.842;4.410;2022-08-24T08:07:42;26.20;95.70
68139;DHT22;54940;50.842;4.410;2022-08-24T08:10:09;26.20;96.20
68139;DHT22;54940;50.842;4.410;2022-08-24T08:12:36;26.40;96.30
68139;DHT22;54940;50.842;4.410;2022-08-24T08:15:03;26.50;96.20
68139;DHT22;54940;50.842;4.410;2022-08-24T08:17:29;26.50;96.20
68139;DHT22;54940;50.842;4.410;2022-08-24T08:19:54;26.50;95.50
68139;DHT22;54940;50.842;4.410;2022-08-24T08:22:20;26.50;95.40
68139;DHT22;54940;50.842;4.410;2022-08-24T08:25:05;26.30;96.30
68139;DHT22;54940;50.842;4.410;2022-08-24T08:27:32;26.10;96.30
68139;DHT22;54940;50.842;4.410;2022-08-24T08:29:59;26.10;96.80
68139;DHT22;54940;50.842;4.410;2022-08-24T08:32:25;26.00;97.00
68139;DHT22;54940;50.842;4.410;2022-08-24T08:34:51;26.00;96.20
68139;DHT22;54940;50.842;4.410;2022-08-24T08:37:16;26.00;97.20
68139;DHT22;54940;50.842;4.410;2022-08-24T08:39:42;26.00;96.90
68139;DHT22;54940;50.842;4.410;2022-08-24T08:42:26;25.90;97.20
68139;DHT22;54940;50.842;4.410;2022-08-24T08:47:52;26.10;97.30
68139;DHT22;54940;50.842;4.410;2022-08-24T08:50:54;26.20;96.10
68139;DHT22;54940;50.842;4.410;2022-08-24T08:53:35;26.30;95.80
68139;DHT22;54940;50.842;4.410;2022-08-24T09:04:47;26.30;96.30
68139;DHT22;54940;50.842;4.410;2022-08-24T09:07:20;26.40;95.50
68139;DHT22;54940;50.842;4.410;2022-08-24T09:18:41;27.20;94.40
68139;DHT22;54940;50.842;4.410;2022-08-24T09:26:26;27.80;94.00
68139;DHT22;54940;50.842;4.410;2022-08-24T09:29:02;27.90;92.80
68139;DHT22;54940;50.842;4.410;2022-08-24T09:31:48;27.90;92.10
68139;DHT22;54940;50.842;4.410;2022-08-24T09:34:26;27.90;92.30
68139;DHT22;54940;50.842;4.410;2022-08-24T09:39:52;28.60;93.30
68139;DHT22;54940;50.842;4.410;2022-08-24T09:42:41;28.60;90.10
68139;DHT22;54940;50.842;4.410;2022-08-24T10:04:34;30.00;88.40
68139;DHT22;54940;50.842;4.410;2022-08-24T10:12:54;30.40;87.00
68139;DHT22;54940;50.842;4.410;2022-08-24T10:15:26;30.40;89.60
68139;DHT22;54940;50.842;4.410;2022-08-24T10:26:35;30.90;79.30
68139;DHT22;54940;50.842;4.410;2022-08-24T10:34:53;31.10;84.30
68139;DHT22;54940;50.842;4.410;2022-08-24T10:40:27;31.20;84.70
68139;DHT22;54940;50.842;4.410;2022-08-24T10:43:22;31.40;80.30
68139;DHT22;54940;50.842;4.410;2022-08-24T10:54:32;31.80;75.60
68139;DHT22;54940;50.842;4.410;2022-08-24T11:02:27;32.40;75.50
68139;DHT22;54940;50.842;4.410;2022-08-24T11:05:08;32.60;76.50
68139;DHT22;54940;50.842;4.410;2022-08-24T11:07:36;32.90;79.80
68139;DHT22;54940;50.842;4.410;2022-08-24T11:10:07;33.20;74.90
68139;DHT22;54940;50.842;4.410;2022-08-24T11:12:35;33.30;77.90
68139;DHT22;54940;50.842;4.410;2022-08-24T11:15:22;33.30;76.90
68139;DHT22;54940;50.842;4.410;2022-08-24T11:17:55;33.60;73.60
68139;DHT22;54940;50.842;4.410;2022-08-24T11:20:32;33.70;70.30
68139;DHT22;54940;50.842;4.410;2022-08-24T11:26:11;34.10;72.10
68139;DHT22;54940;50.842;4.410;2022-08-24T11:31:39;35.00;68.10
68139;DHT22;54940;50.842;4.410;2022-08-24T11:34:08;35.60;68.90
68139;DHT22;54940;50.842;4.410;2022-08-24T11:36:36;36.30;66.00
68139;DHT22;54940;50.842;4.410;2022-08-24T11:39:24;36.60;66.70
68139;DHT22;54940;50.842;4.410;2022-08-24T11:42:02;37.10;64.30
68139;DHT22;54940;50.842;4.410;2022-08-24T11:44:48;37.30;63.40
68139;DHT22;54940;50.842;4.410;2022-08-24T11:53:05;38.20;62.80
68139;DHT22;54940;50.842;4.410;2022-08-24T11:58:14;39.00;55.90
68139;DHT22;54940;50.842;4.410;2022-08-24T12:00:47;38.90;59.20
68139;DHT22;54940;50.842;4.410;2022-08-24T12:11:51;38.30;58.50
68139;DHT22;54940;50.842;4.410;2022-08-24T12:14:40;38.80;54.70
68139;DHT22;54940;50.842;4.410;2022-08-24T12:17:44;39.10;55.20
68139;DHT22;54940;50.842;4.410;2022-08-24T12:20:04;39.50;55.70
68139;DHT22;54940;50.842;4.410;2022-08-24T12:22:31;39.90;55.10
68139;DHT22;54940;50.842;4.410;2022-08-24T12:25:00;40.40;50.40
68139;DHT22;54940;50.842;4.410;2022-08-24T12:27:34;40.40;54.10
68139;DHT22;54940;50.842;4.410;2022-08-24T12:30:11;40.50;52.80
68139;DHT22;54940;50.842;4.410;2022-08-24T12:35:08;40.90;53.90
68139;DHT22;54940;50.842;4.410;2022-08-24T12:40:38;41.30;51.90
68139;DHT22;54940;50.842;4.410;2022-08-24T12:43:12;41.10;52.10
68139;DHT22;54940;50.842;4.410;2022-08-24T12:45:39;40.60;51.70
68139;DHT22;54940;50.842;4.410;2022-08-24T12:48:33;40.20;52.10
68139;DHT22;54940;50.842;4.410;2022-08-24T12:56:22;38.70;54.60
68139;DHT22;54940;50.842;4.410;2022-08-24T12:59:00;38.50;53.70
68139;DHT22;54940;50.842;4.410;2022-08-24T13:01:30;37.80;55.20
68139;DHT22;54940;50.842;4.410;2022-08-24T13:09:33;37.50;56.80
68139;DHT22;54940;50.842;4.410;2022-08-24T13:28:26;39.60;47.90
68139;DHT22;54940;50.842;4.410;2022-08-24T13:41:48;40.40;51.10
68139;DHT22;54940;50.842;4.410;2022-08-24T13:52:52;41.80;49.00
68139;DHT22;54940;50.842;4.410;2022-08-24T13:55:31;41.10;44.60
68139;DHT22;54940;50.842;4.410;2022-08-24T13:58:33;39.70;50.20
68139;DHT22;54940;50.842;4.410;2022-08-24T14:04:17;38.30;50.50
68139;DHT22;54940;50.842;4.410;2022-08-24T14:42:37;34.50;61.30
68139;DHT22;54940;50.842;4.410;2022-08-24T14:51:11;34.30;59.50
68139;DHT22;54940;50.842;4.410;2022-08-24T14:56:20;34.10;61.50
68139;DHT22;54940;50.842;4.410;2022-08-24T15:01:49;34.00;64.50
68139;DHT22;54940;50.842;4.410;2022-08-24T15:07:23;34.00;65.10
68139;DHT22;54940;50.842;4.410;2022-08-24T15:09:50;33.70;66.10
68139;DHT22;54940;50.842;4.410;2022-08-24T15:12:50;33.60;67.90
68139;DHT22;54940;50.842;4.410;2022-08-24T15:23:45;33.20;67.00
68139;DHT22;54940;50.842;4.410;2022-08-24T15:26:10;33.20;67.40
68139;DHT22;54940;50.842;4.410;2022-08-24T15:28:37;33.10;68.10
68139;DHT22;54940;50.842;4.410;2022-08-24T15:31:19;33.00;67.50
68139;DHT22;54940;50.842;4.410;2022-08-24T15:34:01;32.90;67.90
68139;DHT22;54940;50.842;4.410;2022-08-24T15:36:29;32.70;68.30
68139;DHT22;54940;50.842;4.410;2022-08-24T15:38:57;32.70;68.70
68139;DHT22;54940;50.842;4.410;2022-08-24T15:41:29;32.70;69.60
68139;DHT22;54940;50.842;4.410;2022-08-24T15:46:27;32.60;69.50
68139;DHT22;54940;50.842;4.410;2022-08-24T15:49:02;32.60;69.90
68139;DHT22;54940;50.842;4.410;2022-08-24T15:56:52;32.50;70.20
68139;DHT22;54940;50.842;4.410;2022-08-24T15:59:46;32.30;69.90
68139;DHT22;54940;50.842;4.410;2022-08-24T16:04:58;31.90;66.50
68139;DHT22;54940;50.842;4.410;2022-08-24T16:07:30;31.90;68.30
68139;DHT22;54940;50.842;4.410;2022-08-24T16:10:28;31.90;70.50
68139;DHT22;54940;50.842;4.410;2022-08-24T16:15:46;31.80;65.60
68139;DHT22;54940;50.842;4.410;2022-08-24T16:18:13;31.70;64.50
68139;DHT22;54940;50.842;4.410;2022-08-24T16:20:39;31.70;69.30
68139;DHT22;54940;50.842;4.410;2022-08-24T16:23:08;31.70;71.20
68139;DHT22;54940;50.842;4.410;2022-08-24T16:25:37;31.50;68.30
68139;DHT22;54940;50.842;4.410;2022-08-24T16:28:10;31.50;69.10
68139;DHT22;54940;50.842;4.410;2022-08-24T16:30:41;31.60;69.20
68139;DHT22;54940;50.842;4.410;2022-08-24T16:33:07;31.60;72.80
68139;DHT22;54940;50.842;4.410;2022-08-24T16:35:33;31.50;70.70
68139;DHT22;54940;50.842;4.410;2022-08-24T16:37:59;31.50;69.50
68139;DHT22;54940;50.842;4.410;2022-08-24T16:40:25;31.10;67.20
68139;DHT22;54940;50.842;4.410;2022-08-24T16:42:52;31.00;66.30
68139;DHT22;54940;50.842;4.410;2022-08-24T16:45:21;30.90;67.30
68139;DHT22;54940;50.842;4.410;2022-08-24T16:47:47;30.90;67.90
68139;DHT22;54940;50.842;4.410;2022-08-24T16:50:16;30.90;69.00
68139;DHT22;54940;50.842;4.410;2022-08-24T16:52:42;30.90;70.30
68139;DHT22;54940;50.842;4.410;2022-08-24T16:55:08;30.80;68.90
68139;DHT22;54940;50.842;4.410;2022-08-24T16:57:34;30.60;69.00
68139;DHT22;54940;50.842;4.410;2022-08-24T17:00:04;30.50;67.70
68139;DHT22;54940;50.842;4.410;2022-08-24T17:02:31;30.40;70.00
68139;DHT22;54940;50.842;4.410;2022-08-24T17:04:57;30.40;65.90
68139;DHT22;54940;50.842;4.410;2022-08-24T17:07:26;30.50;67.90
68139;DHT22;54940;50.842;4.410;2022-08-24T17:09:53;30.40;68.00
68139;DHT22;54940;50.842;4.410;2022-08-24T17:12:20;30.30;68.70
68139;DHT22;54940;50.842;4.410;2022-08-24T17:14:46;30.30;69.70
68139;DHT22;54940;50.842;4.410;2022-08-24T17:17:15;30.30;69.70
68139;DHT22;54940;50.842;4.410;2022-08-24T17:19:42;30.10;66.70
68139;DHT22;54940;50.842;4.410;2022-08-24T17:22:07;30.10;68.80
68139;DHT22;54940;50.842;4.410;2022-08-24T17:24:33;30.00;70.70
68139;DHT22;54940;50.842;4.410;2022-08-24T17:27:00;30.00;70.10
68139;DHT22;54940;50.842;4.410;2022-08-24T17:29:27;29.90;71.60
68139;DHT22;54940;50.842;4.410;2022-08-24T17:31:53;29.90;72.40
68139;DHT22;54940;50.842;4.410;2022-08-24T17:34:20;29.90;72.20
68139;DHT22;54940;50.842;4.410;2022-08-24T17:36:47;29.90;71.60
68139;DHT22;54940;50.842;4.410;2022-08-24T17:39:15;29.90;72.70
68139;DHT22;54940;50.842;4.410;2022-08-24T17:41:41;30.00;72.90
68139;DHT22;54940;50.842;4.410;2022-08-24T17:44:09;29.80;72.10
68139;DHT22;54940;50.842;4.410;2022-08-24T17:46:35;29.60;71.00
68139;DHT22;54940;50.842;4.410;2022-08-24T17:49:02;29.50;73.20
68139;DHT22;54940;50.842;4.410;2022-08-24T17:51:27;29.50;73.20
68139;DHT22;54940;50.842;4.410;2022-08-24T17:53:53;29.40;74.50
68139;DHT22;54940;50.842;4.410;2022-08-24T17:56:19;29.30;73.20
68139;DHT22;54940;50.842;4.410;2022-08-24T17:58:45;29.40;73.80
68139;DHT22;54940;50.842;4.410;2022-08-24T18:01:30;29.40;74.20
68139;DHT22;54940;50.842;4.410;2022-08-24T18:03:55;29.40;76.00
68139;DHT22;54940;50.842;4.410;2022-08-24T18:06:22;29.40;75.60
68139;DHT22;54940;50.842;4.410;2022-08-24T18:08:49;29.40;75.20
68139;DHT22;54940;50.842;4.410;2022-08-24T18:11:15;29.30;75.30
68139;DHT22;54940;50.842;4.410;2022-08-24T18:13:42;29.40;76.00
68139;DHT22;54940;50.842;4.410;2022-08-24T18:16:15;29.30;76.20
68139;DHT22;54940;50.842;4.410;2022-08-24T18:18:41;29.30;76.70
68139;DHT22;54940;50.842;4.410;2022-08-24T18:21:07;29.20;76.70
68139;DHT22;54940;50.842;4.410;2022-08-24T18:23:33;29.20;76.40
68139;DHT22;54940;50.842;4.410;2022-08-24T18:25:59;29.20;76.90
68139;DHT22;54940;50.842;4.410;2022-08-24T18:28:24;29.20;77.50
68139;DHT22;54940;50.842;4.410;2022-08-24T18:30:50;29.10;78.10
68139;DHT22;54940;50.842;4.410;2022-08-24T18:33:16;29.10;77.80
68139;DHT22;54940;50.842;4.410;2022-08-24T18:35:42;29.00;79.10
68139;DHT22;54940;50.842;4.410;2022-08-24T18:38:11;29.00;79.20
68139;DHT22;54940;50.842;4.410;2022-08-24T18:40:39;28.80;79.10
68139;DHT22;54940;50.842;4.410;2022-08-24T18:43:06;28.80;78.90
68139;DHT22;54940;50.842;4.410;2022-08-24T18:45:33;28.70;79.10
68139;DHT22;54940;50.842;4.410;2022-08-24T18:47:59;28.60;80.50
68139;DHT22;54940;50.842;4.410;2022-08-24T18:50:25;28.60;80.10
68139;DHT22;54940;50.842;4.410;2022-08-24T18:52:53;28.60;80.90
68139;DHT22;54940;50.842;4.410;2022-08-24T18:55:20;28.60;80.20
68139;DHT22;54940;50.842;4.410;2022-08-24T18:57:47;28.60;79.80
68139;DHT22;54940;50.842;4.410;2022-08-24T19:00:13;28.50;80.60
68139;DHT22;54940;50.842;4.410;2022-08-24T19:02:39;28.50;81.30
68139;DHT22;54940;50.842;4.410;2022-08-24T19:05:09;28.50;80.80
68139;DHT22;54940;50.842;4.410;2022-08-24T19:07:41;28.50;80.20
68139;DHT22;54940;50.842;4.410;2022-08-24T19:10:10;28.40;81.10
68139;DHT22;54940;50.842;4.410;2022-08-24T19:12:39;28.30;81.00
68139;DHT22;54940;50.842;4.410;2022-08-24T19:15:06;28.20;81.80
68139;DHT22;54940;50.842;4.410;2022-08-24T19:17:32;28.20;81.70
68139;DHT22;54940;50.842;4.410;2022-08-24T19:19:58;28.20;80.50
68139;DHT22;54940;50.842;4.410;2022-08-24T19:22:24;28.00;81.30
68139;DHT22;54940;50.842;4.410;2022-08-24T19:24:50;28.00;81.70
68139;DHT22;54940;50.842;4.410;2022-08-24T19:27:16;28.00;82.20
68139;DHT22;54940;50.842;4.410;2022-08-24T19:29:42;28.00;81.20
68139;DHT22;54940;50.842;4.410;2022-08-24T19:32:08;27.90;82.00
68139;DHT22;54940;50.842;4.410;2022-08-24T19:34:35;27.90;81.40
68139;DHT22;54940;50.842;4.410;2022-08-24T19:37:01;27.90;82.10
68139;DHT22;54940;50.842;4.410;2022-08-24T19:39:27;27.80;81.60
68139;DHT22;54940;50.842;4.410;2022-08-24T19:41:52;27.80;81.90
68139;DHT22;54940;50.842;4.410;2022-08-24T19:44:20;27.80;82.70